PWSweather.com
Personal Weather Stations
Station Observations
UPSTATEWEATHER
Silver Leaf, Greer, SC 29650

Silver LeafGreer, SC 29650

Lat: 34.8955792, Lon: -82.2868211

Elevation: 875

Station Type: Davis Vantage Vue

https://www.upstateweather.com

High Low Average
Temperature 82.3°F27.9°C 68.0°F20.0°C 72.9°F22.7°C
Dew Point 75.1°F23.9°C 67.4°F19.7°C 70.1°F21.2°C
Winds 2.3 mph 3.7 kmh Calm Calm Calm Calm
Wind Gusts 2.3 mph3.7 kmh -- --
Humidity 99% 70% 92%
Pressure 30.10 in1019.3 mb 29.98 in1015.2 mb -
Precipitation 0.17 in4.3 mm - -
Hour Temp Dew Point Humidity Winds Wind Gusts Pressure Precip Precip Rate Daily Precip Total
12:00 AM 68.2°F20.1°C 67.6°F19.8°C 98% Calm Calm -- 30.07 in1018.3 mb - 0.00 in0.0 mm 0.00 in0.0 mm
12:15 AM 68.4°F20.2°C 67.8°F19.9°C 98% Calm Calm -- 30.07 in1018.3 mb - 0.00 in0.0 mm 0.00 in0.0 mm
12:30 AM 68.4°F20.2°C 67.8°F19.9°C 98% Calm Calm -- 30.07 in1018.3 mb - 0.00 in0.0 mm 0.00 in0.0 mm
12:45 AM 68.6°F20.3°C 68.0°F20.0°C 98% Calm Calm -- 30.07 in1018.3 mb - 0.00 in0.0 mm 0.00 in0.0 mm
01:00 AM 68.6°F20.3°C 68.0°F20.0°C 98% Calm Calm -- 30.07 in1018.3 mb - 0.00 in0.0 mm 0.00 in0.0 mm
01:15 AM 68.8°F20.4°C 68.2°F20.1°C 98% Calm Calm -- 30.07 in1018.3 mb - 0.00 in0.0 mm 0.00 in0.0 mm
01:30 AM 68.5°F20.3°C 67.9°F19.9°C 98% Calm Calm -- 30.08 in1018.6 mb - 0.00 in0.0 mm 0.00 in0.0 mm
01:45 AM 68.4°F20.2°C 67.8°F19.9°C 98% Calm Calm 1.2 mph1.9 kmh 30.09 in1019.0 mb - 0.00 in0.0 mm 0.00 in0.0 mm
02:00 AM 68.4°F20.2°C 67.8°F19.9°C 98% Calm Calm -- 30.08 in1018.6 mb - 0.00 in0.0 mm 0.00 in0.0 mm
02:15 AM 68.4°F20.2°C 67.8°F19.9°C 98% Calm Calm -- 30.07 in1018.3 mb - 0.00 in0.0 mm 0.00 in0.0 mm
02:30 AM 68.3°F20.2°C 67.7°F19.8°C 98% Calm Calm -- 30.06 in1017.9 mb - 0.00 in0.0 mm 0.00 in0.0 mm
02:45 AM 68.3°F20.2°C 67.7°F19.8°C 98% Calm Calm -- 30.06 in1017.9 mb - 0.00 in0.0 mm 0.00 in0.0 mm
03:00 AM 68.1°F20.1°C 67.5°F19.7°C 98% Calm Calm -- 30.06 in1017.9 mb - 0.00 in0.0 mm 0.00 in0.0 mm
03:15 AM 68.0°F20.0°C 67.4°F19.7°C 98% Calm Calm -- 30.06 in1017.9 mb - 0.00 in0.0 mm 0.00 in0.0 mm
03:30 AM 68.1°F20.1°C 67.5°F19.7°C 98% Calm Calm -- 30.06 in1017.9 mb - 0.00 in0.0 mm 0.00 in0.0 mm
03:45 AM 68.1°F20.1°C 67.5°F19.7°C 98% Calm Calm -- 30.06 in1017.9 mb - 0.00 in0.0 mm 0.00 in0.0 mm
04:00 AM 68.2°F20.1°C 67.6°F19.8°C 98% Calm Calm -- 30.06 in1017.9 mb - 0.00 in0.0 mm 0.00 in0.0 mm
04:15 AM 68.1°F20.1°C 67.5°F19.7°C 98% Calm Calm -- 30.06 in1017.9 mb - 0.00 in0.0 mm 0.00 in0.0 mm
04:30 AM 68.1°F20.1°C 67.5°F19.7°C 98% Calm Calm -- 30.06 in1017.9 mb - 0.00 in0.0 mm 0.00 in0.0 mm
04:45 AM 68.2°F20.1°C 67.6°F19.8°C 98% Calm Calm -- 30.05 in1017.6 mb - 0.00 in0.0 mm 0.00 in0.0 mm
05:00 AM 68.3°F20.2°C 67.7°F19.8°C 98% Calm Calm -- 30.05 in1017.6 mb - 0.00 in0.0 mm 0.00 in0.0 mm
05:15 AM 68.2°F20.1°C 67.6°F19.8°C 98% Calm Calm -- 30.06 in1017.9 mb - 0.00 in0.0 mm 0.00 in0.0 mm
05:30 AM 68.3°F20.2°C 67.7°F19.8°C 98% Calm Calm -- 30.06 in1017.9 mb - 0.00 in0.0 mm 0.00 in0.0 mm
05:45 AM 68.2°F20.1°C 67.6°F19.8°C 98% Calm Calm -- 30.06 in1017.9 mb - 0.00 in0.0 mm 0.00 in0.0 mm
06:00 AM 68.2°F20.1°C 67.6°F19.8°C 98% Calm Calm -- 30.07 in1018.3 mb - 0.00 in0.0 mm 0.00 in0.0 mm
06:15 AM 68.2°F20.1°C 67.6°F19.8°C 98% Calm Calm -- 30.07 in1018.3 mb - 0.00 in0.0 mm 0.00 in0.0 mm
06:30 AM 68.2°F20.1°C 67.6°F19.8°C 98% Calm Calm -- 30.07 in1018.3 mb - 0.00 in0.0 mm 0.00 in0.0 mm
06:45 AM 68.3°F20.2°C 67.7°F19.8°C 98% Calm Calm -- 30.07 in1018.3 mb - 0.00 in0.0 mm 0.00 in0.0 mm
07:00 AM 68.4°F20.2°C 67.8°F19.9°C 98% Calm Calm -- 30.07 in1018.3 mb - 0.00 in0.0 mm 0.00 in0.0 mm
07:15 AM 68.7°F20.4°C 68.4°F20.2°C 99% Calm Calm -- 30.07 in1018.3 mb - 0.00 in0.0 mm 0.00 in0.0 mm
07:30 AM 68.9°F20.5°C 68.6°F20.3°C 99% Calm Calm -- 30.07 in1018.3 mb - 0.00 in0.0 mm 0.00 in0.0 mm
07:45 AM 69.0°F20.6°C 68.7°F20.4°C 99% Calm Calm -- 30.07 in1018.3 mb - 0.00 in0.0 mm 0.00 in0.0 mm
08:00 AM 69.2°F20.7°C 68.9°F20.5°C 99% Calm Calm -- 30.07 in1018.3 mb - 0.00 in0.0 mm 0.00 in0.0 mm
08:15 AM 69.6°F20.9°C 69.3°F20.7°C 99% Calm Calm -- 30.07 in1018.3 mb - 0.01 in0.3 mm 0.01 in0.3 mm
08:30 AM 69.9°F21.1°C 69.6°F20.9°C 99% Calm Calm -- 30.08 in1018.6 mb - 0.01 in0.3 mm 0.01 in0.3 mm
08:45 AM 70.2°F21.2°C 69.9°F21.1°C 99% Calm Calm -- 30.08 in1018.6 mb - 0.01 in0.3 mm 0.01 in0.3 mm
09:00 AM 70.1°F21.2°C 69.5°F20.8°C 98% Calm Calm -- 30.08 in1018.6 mb - 0.01 in0.3 mm 0.01 in0.3 mm
09:15 AM 70.5°F21.4°C 69.9°F21.1°C 98% Calm Calm -- 30.09 in1019.0 mb - 0.00 in0.0 mm 0.01 in0.3 mm
09:30 AM 70.8°F21.6°C 70.2°F21.2°C 98% Calm Calm -- 30.10 in1019.3 mb - 0.00 in0.0 mm 0.01 in0.3 mm
09:45 AM 71.2°F21.8°C 70.6°F21.4°C 98% Calm Calm -- 30.09 in1019.0 mb - 0.00 in0.0 mm 0.01 in0.3 mm
10:00 AM 71.5°F21.9°C 70.9°F21.6°C 98% Calm Calm -- 30.09 in1019.0 mb - 0.00 in0.0 mm 0.01 in0.3 mm
10:15 AM 71.7°F22.1°C 71.1°F21.7°C 98% Calm Calm -- 30.09 in1019.0 mb - 0.00 in0.0 mm 0.01 in0.3 mm
10:30 AM 72.2°F22.3°C 71.6°F22.0°C 98% Calm Calm -- 30.10 in1019.3 mb - 0.00 in0.0 mm 0.01 in0.3 mm
10:45 AM 72.7°F22.6°C 72.1°F22.3°C 98% Calm Calm -- 30.09 in1019.0 mb - 0.00 in0.0 mm 0.01 in0.3 mm
11:00 AM 73.6°F23.1°C 72.7°F22.6°C 97% Calm Calm -- 30.10 in1019.3 mb - 0.00 in0.0 mm 0.01 in0.3 mm
11:15 AM 74.0°F23.3°C 72.8°F22.7°C 96% Calm Calm -- 30.09 in1019.0 mb - 0.00 in0.0 mm 0.01 in0.3 mm
11:30 AM 74.5°F23.6°C 73.0°F22.8°C 95% Calm Calm -- 30.09 in1019.0 mb - 0.00 in0.0 mm 0.01 in0.3 mm
11:45 AM 75.3°F24.1°C 70.8°F21.6°C 86% Calm Calm 1.2 mph1.9 kmh 30.09 in1019.0 mb - 0.00 in0.0 mm 0.01 in0.3 mm
12:00 PM 76.3°F24.6°C 71.1°F21.7°C 84% Calm Calm -- 30.09 in1019.0 mb - 0.00 in0.0 mm 0.01 in0.3 mm
12:15 PM 76.7°F24.8°C 69.7°F20.9°C 79% Calm Calm -- 30.09 in1019.0 mb - 0.00 in0.0 mm 0.01 in0.3 mm
12:30 PM 77.3°F25.2°C 72.4°F22.4°C 85% Calm Calm -- 30.08 in1018.6 mb - 0.00 in0.0 mm 0.01 in0.3 mm
12:45 PM 77.8°F25.4°C 71.5°F21.9°C 81% Calm Calm 1.2 mph1.9 kmh 30.07 in1018.3 mb - 0.00 in0.0 mm 0.01 in0.3 mm
01:00 PM 78.3°F25.7°C 70.8°F21.6°C 78% Calm Calm -- 30.06 in1017.9 mb - 0.00 in0.0 mm 0.01 in0.3 mm
01:15 PM 79.4°F26.3°C 71.9°F22.2°C 78% Calm Calm 2.3 mph3.7 kmh 30.05 in1017.6 mb - 0.00 in0.0 mm 0.01 in0.3 mm
01:30 PM 80.5°F26.9°C 70.7°F21.5°C 72% 1.2 mph 1.9 kmh 2.3 mph3.7 kmh 30.04 in1017.3 mb - 0.00 in0.0 mm 0.01 in0.3 mm
01:45 PM 80.3°F26.8°C 70.0°F21.1°C 71% 2.3 mph 3.7 kmh 2.3 mph3.7 kmh 30.04 in1017.3 mb - 0.00 in0.0 mm 0.01 in0.3 mm
02:00 PM 80.9°F27.2°C 71.0°F21.7°C 72% Calm Calm -- 30.03 in1016.9 mb - 0.00 in0.0 mm 0.01 in0.3 mm
02:15 PM 81.8°F27.7°C 71.1°F21.7°C 70% Calm Calm -- 30.02 in1016.6 mb - 0.00 in0.0 mm 0.01 in0.3 mm
02:30 PM 81.8°F27.7°C 72.3°F22.4°C 73% Calm Calm 1.2 mph1.9 kmh 30.02 in1016.6 mb - 0.00 in0.0 mm 0.01 in0.3 mm
02:45 PM 81.4°F27.4°C 73.9°F23.3°C 78% Calm Calm -- 30.01 in1016.3 mb - 0.00 in0.0 mm 0.01 in0.3 mm
03:00 PM 80.9°F27.2°C 74.1°F23.4°C 80% Calm Calm -- 30.01 in1016.3 mb - 0.00 in0.0 mm 0.01 in0.3 mm
03:15 PM 81.1°F27.3°C 73.2°F22.9°C 77% Calm Calm -- 30.00 in1015.9 mb - 0.00 in0.0 mm 0.01 in0.3 mm
03:30 PM 81.2°F27.3°C 74.4°F23.6°C 80% 1.2 mph 1.9 kmh 1.2 mph1.9 kmh 30.00 in1015.9 mb - 0.00 in0.0 mm 0.01 in0.3 mm
03:45 PM 81.5°F27.5°C 75.1°F23.9°C 81% Calm Calm -- 30.00 in1015.9 mb - 0.00 in0.0 mm 0.01 in0.3 mm
04:00 PM 81.4°F27.4°C 73.8°F23.2°C 78% Calm Calm 2.3 mph3.7 kmh 29.99 in1015.6 mb - 0.00 in0.0 mm 0.01 in0.3 mm
04:15 PM 82.0°F27.8°C 72.1°F22.3°C 72% Calm Calm -- 29.99 in1015.6 mb - 0.00 in0.0 mm 0.01 in0.3 mm
04:30 PM 82.3°F27.9°C 73.6°F23.1°C 75% Calm Calm 1.2 mph1.9 kmh 29.98 in1015.2 mb - 0.00 in0.0 mm 0.01 in0.3 mm
04:45 PM 81.9°F27.7°C 74.7°F23.7°C 79% Calm Calm -- 29.98 in1015.2 mb - 0.00 in0.0 mm 0.01 in0.3 mm
05:00 PM 81.7°F27.6°C 73.4°F23.0°C 76% Calm Calm -- 29.99 in1015.6 mb - 0.00 in0.0 mm 0.01 in0.3 mm
05:15 PM 81.0°F27.2°C 75.0°F23.9°C 82% Calm Calm 1.2 mph1.9 kmh 29.99 in1015.6 mb - 0.00 in0.0 mm 0.01 in0.3 mm
05:30 PM 80.5°F26.9°C 74.5°F23.6°C 82% Calm Calm 2.3 mph3.7 kmh 29.99 in1015.6 mb - 0.00 in0.0 mm 0.01 in0.3 mm
05:45 PM 79.9°F26.6°C 74.3°F23.5°C 83% Calm Calm -- 29.98 in1015.2 mb - 0.00 in0.0 mm 0.01 in0.3 mm
06:00 PM 79.3°F26.3°C 73.3°F22.9°C 82% Calm Calm -- 29.98 in1015.2 mb - 0.00 in0.0 mm 0.01 in0.3 mm
06:15 PM 80.3°F26.8°C 70.9°F21.6°C 73% Calm Calm -- 29.99 in1015.6 mb - 0.00 in0.0 mm 0.01 in0.3 mm
06:30 PM 79.7°F26.5°C 69.9°F21.1°C 72% Calm Calm 1.2 mph1.9 kmh 30.00 in1015.9 mb - 0.00 in0.0 mm 0.01 in0.3 mm
06:45 PM 78.1°F25.6°C 71.7°F22.1°C 81% Calm Calm -- 30.01 in1016.3 mb - 0.00 in0.0 mm 0.01 in0.3 mm
07:00 PM 74.1°F23.4°C 70.9°F21.6°C 90% Calm Calm 1.2 mph1.9 kmh 30.02 in1016.6 mb - 0.04 in1.0 mm 0.06 in1.5 mm
07:15 PM 72.3°F22.4°C 70.5°F21.4°C 94% Calm Calm -- 30.02 in1016.6 mb - 0.07 in1.8 mm 0.08 in2.0 mm
07:30 PM 71.7°F22.1°C 70.1°F21.2°C 95% Calm Calm -- 30.03 in1016.9 mb - 0.07 in1.8 mm 0.08 in2.0 mm
07:45 PM 71.4°F21.9°C 70.2°F21.2°C 96% Calm Calm -- 30.04 in1017.3 mb - 0.07 in1.8 mm 0.08 in2.0 mm
08:00 PM 71.5°F21.9°C 70.6°F21.4°C 97% Calm Calm -- 30.05 in1017.6 mb - 0.03 in0.8 mm 0.09 in2.3 mm
08:15 PM 71.5°F21.9°C 70.6°F21.4°C 97% Calm Calm -- 30.05 in1017.6 mb - 0.02 in0.5 mm 0.10 in2.5 mm
08:30 PM 71.4°F21.9°C 70.5°F21.4°C 97% Calm Calm -- 30.06 in1017.9 mb - 0.04 in1.0 mm 0.12 in3.0 mm
08:45 PM 71.5°F21.9°C 70.6°F21.4°C 97% Calm Calm -- 30.06 in1017.9 mb - 0.05 in1.3 mm 0.13 in3.3 mm
09:00 PM 70.8°F21.6°C 69.9°F21.1°C 97% Calm Calm -- 30.06 in1017.9 mb - 0.04 in1.0 mm 0.13 in3.3 mm
09:15 PM 70.5°F21.4°C 69.6°F20.9°C 97% Calm Calm -- 30.06 in1017.9 mb - 0.04 in1.0 mm 0.14 in3.6 mm
09:30 PM 70.6°F21.4°C 69.7°F20.9°C 97% Calm Calm -- 30.06 in1017.9 mb - 0.04 in1.0 mm 0.17 in4.3 mm
09:45 PM 70.5°F21.4°C 69.6°F20.9°C 97% Calm Calm -- 30.06 in1017.9 mb - 0.03 in0.8 mm 0.17 in4.3 mm
10:00 PM 70.2°F21.2°C 69.3°F20.7°C 97% Calm Calm -- 30.05 in1017.6 mb - 0.03 in0.8 mm 0.17 in4.3 mm
10:15 PM 70.1°F21.2°C 69.2°F20.7°C 97% Calm Calm -- 30.05 in1017.6 mb - 0.02 in0.5 mm 0.17 in4.3 mm
10:30 PM 70.0°F21.1°C 69.1°F20.6°C 97% Calm Calm -- 30.05 in1017.6 mb - 0.00 in0.0 mm 0.17 in4.3 mm
10:45 PM 70.0°F21.1°C 69.4°F20.8°C 98% Calm Calm -- 30.05 in1017.6 mb - 0.00 in0.0 mm 0.17 in4.3 mm
11:00 PM 70.1°F21.2°C 69.5°F20.8°C 98% Calm Calm -- 30.05 in1017.6 mb - 0.00 in0.0 mm 0.63 in16.0 mm
11:15 PM 70.0°F21.1°C 69.4°F20.8°C 98% Calm Calm -- 30.05 in1017.6 mb - 0.00 in0.0 mm 0.63 in16.0 mm
11:30 PM 69.9°F21.1°C 69.3°F20.7°C 98% Calm Calm -- 30.05 in1017.6 mb - 0.00 in0.0 mm 0.63 in16.0 mm
11:45 PM 69.7°F20.9°C 69.1°F20.6°C 98% Calm Calm -- 30.05 in1017.6 mb - 0.00 in0.0 mm 0.63 in16.0 mm